AU-0053 weather

Snowy Range Airfield
Victoria, Australia

Public forecast

Using degrees Celsius for public forecast. Weather courtesy of forecast.io.

Closest aviation weather report (METAR) to Snowy Range Airfield

Closest report is Wangaratta Airport, 60.2 nm (111.5 km) NNW. Retrieved 2020/05/28 20:30 UTC (29 minutes ago):

YWGT 282030Z AUTO 00000KT 0150 -RA OVC001 02/02 Q1027

Closest aviation forecast (TAF) to Snowy Range Airfield

Closest forecast is Wangaratta Airport, 60.2 nm (111.5 km) NNW. Retrieved 2020/05/28 20:00 UTC (59 minutes ago):

TAF YWGT 281853Z 2820/2908 VRB03KT 0300 FG BKN001 BECMG 2823/2901 VRB03KT 9999 NSW BKN005 FM290200 VRB03KT 9999 SCT020